Time;durP1;ratioP1;P1;durP2;ratioP2;P2;SDS_P1;SDS_P2;PMS_P1;PMS_P2;Temp;Humidity;BMP_temperature;BMP_pressure;BME280_temperature;BME280_humidity;BME280_pressure;Samples;Min_cycle;Max_cycle;Signal;HPM_P1;HPM_P2
2024/04/16 00:06:55;;;;;;;0.00;0.00;;;;;;;;;;33643242;26;20252;-75
2024/04/16 00:22:08;;;;;;;0.20;0.20;;;;;;;;;;33611169;26;20261;-75
2024/04/16 00:37:14;;;;;;;0.10;0.10;;;;;;;;;;33392925;26;20299;-75
2024/04/16 00:52:22;;;;;;;0.00;0.00;;;;;;;;;;33405379;26;20268;-75
2024/04/16 01:07:28;;;;;;;0.00;0.00;;;;;;;;;;33407028;26;20273;-75
2024/04/16 01:22:41;;;;;;;0.10;0.10;;;;;;;;;;33414330;26;20747;-75
2024/04/16 01:37:48;;;;;;;0.00;0.00;;;;;;;;;;33439920;26;20257;-75
2024/04/16 01:52:54;;;;;;;0.00;0.00;;;;;;;;;;33495563;26;20376;-76
2024/04/16 02:08:00;;;;;;;0.00;0.00;;;;;;;;;;33522840;26;20577;-76
2024/04/16 02:23:13;;;;;;;0.00;0.00;;;;;;;;;;33472497;26;20278;-76
2024/04/16 02:38:20;;;;;;;0.30;0.30;;;;;;;;;;33600764;26;20276;-76
2024/04/16 02:53:26;;;;;;;0.00;0.00;;;;;;;;;;33579281;26;20606;-76
2024/04/16 03:08:32;;;;;;;0.00;0.00;;;;;;;;;;33590191;26;20256;-76
2024/04/16 03:23:45;;;;;;;0.47;0.47;;;;;;;;;;33580810;26;20717;-75
2024/04/16 03:38:52;;;;;;;0.00;0.00;;;;;;;;;;33585319;26;20272;-75
2024/04/16 03:54:02;;;;;;;0.00;0.00;;;;;;;;;;33569856;26;20545;-75
2024/04/16 04:09:09;;;;;;;0.00;0.00;;;;;;;;;;33565903;26;20271;-76
2024/04/16 04:24:21;;;;;;;0.00;0.00;;;;;;;;;;33572281;26;20271;-75
2024/04/16 04:39:28;;;;;;;0.10;0.10;;;;;;;;;;33580068;26;20266;-75
2024/04/16 04:54:34;;;;;;;0.00;0.00;;;;;;;;;;33587816;26;20795;-75
2024/04/16 05:09:40;;;;;;;0.00;0.00;;;;;;;;;;33578741;26;20648;-76
2024/04/16 05:24:53;;;;;;;0.00;0.00;;;;;;;;;;33587025;26;20272;-74
2024/04/16 05:40:00;;;;;;;0.00;0.00;;;;;;;;;;33465985;26;20261;-75
2024/04/16 05:55:08;;;;;;;0.03;0.03;;;;;;;;;;33508991;26;20645;-76
2024/04/16 06:10:14;;;;;;;0.00;0.00;;;;;;;;;;33443553;26;20413;-75
2024/04/16 06:25:27;;;;;;;0.00;0.00;;;;;;;;;;33426298;26;20264;-75
2024/04/16 06:40:33;;;;;;;0.00;0.00;;;;;;;;;;33457937;26;20604;-74
2024/04/16 06:55:39;;;;;;;0.00;0.00;;;;;;;;;;33457925;26;20257;-75
2024/04/16 07:10:45;;;;;;;0.00;0.00;;;;;;;;;;33458288;26;20299;-75
2024/04/16 07:25:59;;;;;;;0.00;0.00;;;;;;;;;;33435626;26;20351;-75
2024/04/16 07:41:05;;;;;;;0.00;0.00;;;;;;;;;;33431844;26;20536;-76
2024/04/16 07:56:11;;;;;;;0.00;0.00;;;;;;;;;;33421297;26;20272;-75
2024/04/16 08:11:18;;;;;;;0.00;0.00;;;;;;;;;;33418022;26;20256;-75
2024/04/16 08:26:31;;;;;;;0.00;0.00;;;;;;;;;;33431552;26;20876;-75
2024/04/16 08:41:38;;;;;;;0.00;0.00;;;;;;;;;;33408368;26;20291;-75
2024/04/16 08:56:45;;;;;;;0.00;0.00;;;;;;;;;;33405452;26;20257;-75
2024/04/16 09:11:51;;;;;;;0.10;0.10;;;;;;;;;;33409455;26;20280;-75
2024/04/16 09:27:10;;;;;;;0.00;0.00;;;;;;;;;;33417129;26;20272;-76
2024/04/16 09:42:16;;;;;;;0.00;0.00;;;;;;;;;;33397616;26;20249;-76
2024/04/16 09:57:23;;;;;;;0.00;0.00;;;;;;;;;;33367685;26;20343;-75
2024/04/16 10:12:29;;;;;;;0.20;0.20;;;;;;;;;;33412568;26;20364;-76
2024/04/16 10:27:43;;;;;;;0.10;0.10;;;;;;;;;;33416356;26;20264;-76
2024/04/16 10:42:50;;;;;;;0.00;0.00;;;;;;;;;;33383828;26;20296;-76
2024/04/16 10:57:57;;;;;;;0.00;0.00;;;;;;;;;;33408690;26;20277;-76
2024/04/16 11:13:03;;;;;;;0.00;0.00;;;;;;;;;;33417494;26;20719;-76
2024/04/16 11:28:16;;;;;;;0.00;0.00;;;;;;;;;;33397843;26;20272;-76
2024/04/16 11:43:23;;;;;;;0.00;0.00;;;;;;;;;;33432357;26;20253;-75
2024/04/16 11:58:29;;;;;;;0.13;0.13;;;;;;;;;;33382437;26;20301;-75
2024/04/16 12:13:35;;;;;;;0.00;0.00;;;;;;;;;;33430863;26;20768;-76
2024/04/16 12:28:49;;;;;;;0.00;0.00;;;;;;;;;;33413264;26;20272;-75
2024/04/16 12:43:56;;;;;;;0.00;0.00;;;;;;;;;;33376321;26;20265;-76
2024/04/16 12:59:02;;;;;;;0.00;0.00;;;;;;;;;;33362651;26;20257;-76
2024/04/16 13:14:09;;;;;;;0.00;0.00;;;;;;;;;;33371119;26;20306;-76
2024/04/16 13:29:22;;;;;;;0.00;0.00;;;;;;;;;;33386634;26;20299;-76
2024/04/16 13:44:28;;;;;;;0.00;0.00;;;;;;;;;;33405532;26;20273;-75
2024/04/16 13:59:34;;;;;;;0.00;0.00;;;;;;;;;;33375768;26;20268;-76
2024/04/16 14:14:41;;;;;;;0.00;0.00;;;;;;;;;;33381620;26;20311;-76
2024/04/16 14:29:53;;;;;;;0.00;0.00;;;;;;;;;;33413295;26;20252;-76
2024/04/16 14:44:59;;;;;;;0.00;0.00;;;;;;;;;;33445544;26;20379;-76
2024/04/16 15:00:09;;;;;;;0.00;0.00;;;;;;;;;;33442078;26;20257;-75
2024/04/16 15:15:15;;;;;;;0.00;0.00;;;;;;;;;;33437129;26;20283;-75
2024/04/16 15:30:28;;;;;;;0.00;0.00;;;;;;;;;;33409647;26;20307;-76
2024/04/16 15:45:34;;;;;;;0.00;0.00;;;;;;;;;;33352816;26;20276;-76
2024/04/16 16:00:43;;;;;;;0.00;0.00;;;;;;;;;;33359900;26;20331;-75
2024/04/16 16:15:50;;;;;;;0.00;0.00;;;;;;;;;;33376854;26;20707;-76
2024/04/16 16:31:03;;;;;;;0.00;0.00;;;;;;;;;;33380007;26;20309;-76
2024/04/16 16:46:09;;;;;;;0.00;0.00;;;;;;;;;;33390405;26;20295;-76
2024/04/16 17:01:16;;;;;;;0.00;0.00;;;;;;;;;;33382183;26;20273;-76
2024/04/16 17:16:22;;;;;;;0.00;0.00;;;;;;;;;;33383802;26;20271;-76
2024/04/16 17:31:35;;;;;;;0.00;0.00;;;;;;;;;;33368196;26;20296;-76
2024/04/16 17:46:42;;;;;;;0.00;0.00;;;;;;;;;;33352561;26;20254;-77
2024/04/16 18:01:48;;;;;;;0.00;0.00;;;;;;;;;;33348495;26;20261;-76
2024/04/16 18:16:54;;;;;;;0.00;0.00;;;;;;;;;;33345124;26;20275;-76
2024/04/16 18:32:07;;;;;;;0.00;0.00;;;;;;;;;;33418108;26;20299;-76
2024/04/16 18:47:16;;;;;;;0.00;0.00;;;;;;;;;;33456734;26;20264;-76
2024/04/16 19:02:22;;;;;;;0.00;0.00;;;;;;;;;;33463992;26;20310;-76
2024/04/16 19:17:32;;;;;;;0.00;0.00;;;;;;;;;;33467326;26;20360;-76
2024/04/16 19:32:46;;;;;;;0.00;0.00;;;;;;;;;;33408100;26;20578;-76
2024/04/16 19:47:53;;;;;;;0.00;0.00;;;;;;;;;;33360071;26;20255;-76
2024/04/16 20:02:59;;;;;;;0.00;0.00;;;;;;;;;;33373227;26;20269;-76
2024/04/16 20:18:11;;;;;;;0.00;0.00;;;;;;;;;;33355116;26;20395;-76
2024/04/16 20:33:24;;;;;;;0.00;0.00;;;;;;;;;;33555285;26;20307;-76
2024/04/16 20:48:31;;;;;;;0.00;0.00;;;;;;;;;;33635656;26;20263;-76
2024/04/16 21:03:37;;;;;;;0.00;0.00;;;;;;;;;;33639773;26;20260;-76
2024/04/16 21:18:43;;;;;;;0.10;0.10;;;;;;;;;;33631913;26;20808;-76
2024/04/16 21:33:55;;;;;;;0.00;0.00;;;;;;;;;;33437710;26;20714;-76
2024/04/16 21:49:02;;;;;;;0.00;0.00;;;;;;;;;;33361087;26;20338;-76
2024/04/16 22:04:08;;;;;;;0.00;0.00;;;;;;;;;;33353627;26;20268;-76
2024/04/16 22:19:14;;;;;;;0.00;0.00;;;;;;;;;;33368223;26;20820;-77
2024/04/16 22:34:27;;;;;;;0.00;0.00;;;;;;;;;;33449915;26;20368;-78
2024/04/16 22:49:34;;;;;;;0.00;0.00;;;;;;;;;;33461162;26;20263;-78
2024/04/16 23:04:41;;;;;;;0.00;0.00;;;;;;;;;;33485950;26;20268;-77
2024/04/16 23:19:47;;;;;;;0.00;0.00;;;;;;;;;;33498566;26;20263;-77
2024/04/16 23:35:00;;;;;;;0.00;0.00;;;;;;;;;;33400130;26;20595;-76
2024/04/16 23:50:06;;;;;;;0.00;0.00;;;;;;;;;;33413828;26;20638;-75
